Time;durP1;ratioP1;P1;durP2;ratioP2;P2;SDS_P1;SDS_P2;PMS_P1;PMS_P2;Temp;Humidity;BMP_temperature;BMP_pressure;BME280_temperature;BME280_humidity;BME280_pressure;Samples;Min_cycle;Max_cycle;Signal;HPM_P1;HPM_P2
2023/03/28 00:00:42;;;;;;;19.85;5.40;;;-1.50;99.90;;;;;;5036952;28;20028;-87
2023/03/28 00:03:08;;;;;;;16.60;6.38;;;-1.40;99.90;;;;;;5020606;28;20017;-87
2023/03/28 00:05:38;;;;;;;14.30;5.30;;;-1.40;99.90;;;;;;5043390;28;20052;-88
2023/03/28 00:08:04;;;;;;;18.75;6.32;;;-1.40;99.90;;;;;;5020098;28;20649;-87
2023/03/28 00:10:30;;;;;;;12.30;6.07;;;-1.40;99.90;;;;;;5020717;28;20074;-87
2023/03/28 00:12:55;;;;;;;12.68;5.35;;;-1.40;99.90;;;;;;5019984;28;20056;-86
2023/03/28 00:15:22;;;;;;;17.60;5.88;;;-1.40;99.90;;;;;;5020402;28;20049;-87
2023/03/28 00:17:48;;;;;;;18.30;5.82;;;-1.40;99.90;;;;;;5020386;28;20696;-87
2023/03/28 00:20:14;;;;;;;21.55;6.18;;;-1.40;99.90;;;;;;5036607;28;20227;-87
2023/03/28 00:22:40;;;;;;;12.30;6.13;;;-1.40;99.90;;;;;;5036304;28;20237;-87
2023/03/28 00:25:07;;;;;;;22.73;6.30;;;-1.40;99.90;;;;;;5036962;28;20048;-87
2023/03/28 00:27:34;;;;;;;18.10;6.28;;;-1.40;99.90;;;;;;5020405;28;20025;-88
2023/03/28 00:30:01;;;;;;;17.52;5.32;;;-1.40;99.90;;;;;;5019578;28;20029;-87
2023/03/28 00:32:27;;;;;;;18.15;4.50;;;-1.50;99.90;;;;;;5035543;28;20032;-88
2023/03/28 00:34:53;;;;;;;16.20;5.07;;;-1.50;99.90;;;;;;5038456;28;20025;-87
2023/03/28 00:37:19;;;;;;;27.25;5.97;;;-1.50;99.90;;;;;;5036560;28;20035;-87
2023/03/28 00:39:52;;;;;;;12.20;5.18;;;-1.50;99.90;;;;;;5019830;28;20029;-87
2023/03/28 00:42:20;;;;;;;17.30;5.18;;;-1.50;99.90;;;;;;5010977;28;20023;-87
2023/03/28 00:44:51;;;;;;;13.45;5.28;;;-1.50;99.90;;;;;;5021213;28;20084;-87
2023/03/28 00:47:36;;;;;;;12.38;4.95;;;-1.60;99.90;;;;;;5019305;28;20112;-87
2023/03/28 00:50:33;;;;;;;16.55;5.07;;;-1.60;99.90;;;;;;5033081;28;20037;-88
2023/03/28 00:53:25;;;;;;;17.27;6.85;;;-1.60;99.90;;;;;;5033086;28;20032;-88
2023/03/28 00:55:57;;;;;;;12.80;4.35;;;-1.60;99.90;;;;;;5035614;28;20044;-88
2023/03/28 00:58:28;;;;;;;18.35;4.15;;;-1.70;99.90;;;;;;5025332;28;20391;-88
2023/03/28 01:00:56;;;;;;;19.83;5.80;;;-1.70;99.90;;;;;;5033009;28;20048;-88
2023/03/28 01:03:26;;;;;;;14.25;5.13;;;-1.90;99.90;;;;;;5019352;28;20025;-88
2023/03/28 01:05:53;;;;;;;16.73;5.10;;;-1.90;99.90;;;;;;5035932;28;20021;-88
2023/03/28 01:08:25;;;;;;;17.92;5.25;;;-1.80;99.90;;;;;;5035992;28;20087;-88
2023/03/28 01:10:52;;;;;;;9.65;4.97;;;-1.80;99.90;;;;;;5036033;28;20040;-88
2023/03/28 01:13:24;;;;;;;21.70;6.03;;;-1.80;99.90;;;;;;5018794;28;20033;-88
2023/03/28 01:15:52;;;;;;;12.07;5.00;;;-1.90;99.90;;;;;;5031481;28;20036;-87
2023/03/28 01:18:21;;;;;;;21.38;4.50;;;-1.80;99.90;;;;;;5018078;28;20033;-87
2023/03/28 01:21:11;;;;;;;18.63;4.95;;;-1.80;99.90;;;;;;5018541;28;20429;-87
2023/03/28 01:23:40;;;;;;;12.23;5.10;;;-1.80;99.90;;;;;;5039800;28;20017;-87
2023/03/28 01:26:24;;;;;;;22.38;5.78;;;-1.70;99.90;;;;;;5021016;28;20021;-88
2023/03/28 01:29:01;;;;;;;12.93;5.15;;;-1.60;99.90;;;;;;5018608;28;20025;-88
2023/03/28 01:31:51;;;;;;;22.13;6.40;;;-1.60;99.90;;;;;;5040319;28;20024;-88
2023/03/28 01:35:02;;;;;;;13.73;4.95;;;-1.60;99.90;;;;;;5029256;28;20037;-88
2023/03/28 01:37:58;;;;;;;17.60;4.78;;;-1.60;99.90;;;;;;5039647;28;20124;-88
2023/03/28 01:40:50;;;;;;;15.70;5.20;;;-1.70;99.90;;;;;;5022656;28;20060;-88
2023/03/28 01:43:47;;;;;;;21.70;5.57;;;-1.70;99.90;;;;;;5023093;28;20036;-88
2023/03/28 01:46:31;;;;;;;14.65;5.07;;;-1.70;99.90;;;;;;5022455;28;20033;-88
2023/03/28 01:49:01;;;;;;;20.70;5.85;;;-1.80;99.90;;;;;;5022663;28;20480;-88
2023/03/28 01:51:46;;;;;;;14.93;5.80;;;-1.80;99.90;;;;;;5022909;28;20635;-88
2023/03/28 01:54:53;;;;;;;22.27;5.90;;;-1.80;99.90;;;;;;5038617;28;20017;-88
2023/03/28 01:57:30;;;;;;;24.63;6.93;;;-1.80;99.90;;;;;;5039145;28;20021;-88
2023/03/28 02:00:11;;;;;;;18.07;7.17;;;-1.80;99.90;;;;;;5038906;28;20483;-88
2023/03/28 02:03:12;;;;;;;19.70;7.70;;;-1.70;99.90;;;;;;5037990;28;20032;-88
2023/03/28 02:05:47;;;;;;;20.00;8.10;;;-1.70;99.90;;;;;;5052194;28;20025;-88
2023/03/28 02:08:16;;;;;;;28.48;7.40;;;-1.60;99.90;;;;;;5022579;28;20028;-88
2023/03/28 02:11:02;;;;;;;25.88;8.02;;;-1.70;99.90;;;;;;5036723;28;20032;-88
2023/03/28 02:13:52;;;;;;;22.58;7.10;;;-1.70;99.90;;;;;;5027982;28;20036;-88
2023/03/28 02:16:40;;;;;;;19.67;7.15;;;-1.70;99.90;;;;;;5040758;28;20463;-88
2023/03/28 02:19:32;;;;;;;19.25;7.15;;;-1.70;99.90;;;;;;5027189;28;20635;-88
2023/03/28 02:22:15;;;;;;;19.85;6.60;;;-1.70;99.90;;;;;;5038413;28;20036;-88
2023/03/28 02:25:01;;;;;;;21.88;7.68;;;-1.60;99.90;;;;;;5021324;28;20033;-87
2023/03/28 02:27:57;;;;;;;13.73;6.75;;;-1.60;99.90;;;;;;5051994;28;20025;-88
2023/03/28 02:30:52;;;;;;;21.90;7.20;;;-1.60;99.90;;;;;;4979161;28;20034;-87
2023/03/28 02:33:32;;;;;;;19.27;7.07;;;-1.60;99.90;;;;;;5038099;28;20029;-88
2023/03/28 02:36:16;;;;;;;15.95;5.60;;;-1.60;99.90;;;;;;5021883;28;20055;-87
2023/03/28 02:38:59;;;;;;;18.55;6.60;;;-1.60;99.90;;;;;;5032250;28;20029;-87
2023/03/28 02:41:57;;;;;;;16.25;6.35;;;-1.60;99.90;;;;;;5038063;28;20029;-88
2023/03/28 02:44:39;;;;;;;11.73;5.43;;;-1.70;99.90;;;;;;4949474;28;20038;-88
2023/03/28 02:47:32;;;;;;;16.80;6.13;;;-1.80;99.90;;;;;;4945923;28;20027;-88
2023/03/28 02:50:21;;;;;;;16.48;6.22;;;-1.80;99.90;;;;;;5029818;28;20029;-89
2023/03/28 02:53:07;;;;;;;21.67;5.85;;;-1.80;99.90;;;;;;5021830;28;20400;-88
2023/03/28 02:56:16;;;;;;;18.58;5.70;;;-1.80;99.90;;;;;;5018135;28;20060;-87
2023/03/28 02:59:07;;;;;;;25.05;6.55;;;-1.80;99.90;;;;;;5023800;28;20013;-88
2023/03/28 03:01:35;;;;;;;15.00;5.60;;;-1.80;99.90;;;;;;5021650;28;20049;-87
2023/03/28 03:04:01;;;;;;;26.05;7.05;;;-1.80;99.90;;;;;;5054332;28;20083;-88
2023/03/28 03:06:27;;;;;;;17.98;6.50;;;-1.90;99.90;;;;;;5037050;28;20025;-87
2023/03/28 03:08:53;;;;;;;15.52;6.35;;;-2.00;99.90;;;;;;5020071;28;20029;-87
2023/03/28 03:11:18;;;;;;;19.35;6.63;;;-2.10;99.90;;;;;;5037903;28;20028;-87
2023/03/28 03:13:46;;;;;;;20.60;7.25;;;-2.10;99.90;;;;;;5037556;28;20031;-88
2023/03/28 03:16:12;;;;;;;30.00;7.35;;;-2.10;99.90;;;;;;5018476;28;20045;-87
2023/03/28 03:18:37;;;;;;;19.17;6.13;;;-2.10;99.90;;;;;;5020909;28;20028;-87
2023/03/28 03:21:03;;;;;;;18.30;7.07;;;-2.20;99.90;;;;;;5017439;28;20025;-87
2023/03/28 03:23:29;;;;;;;31.75;6.53;;;-2.10;99.90;;;;;;5021488;28;20025;-88
2023/03/28 03:25:57;;;;;;;22.83;7.05;;;-2.20;99.90;;;;;;5022102;28;20021;-87
2023/03/28 03:28:39;;;;;;;23.48;6.43;;;-2.20;99.90;;;;;;5037828;28;20025;-88
2023/03/28 03:31:06;;;;;;;24.45;6.63;;;-2.20;99.90;;;;;;5021522;28;20186;-88
2023/03/28 03:34:27;;;;;;;27.00;7.57;;;-2.30;99.90;;;;;;5035291;28;20064;-88
2023/03/28 03:36:56;;;;;;;24.77;6.95;;;-2.40;99.90;;;;;;5049484;28;20620;-88
2023/03/28 03:39:22;;;;;;;27.88;7.22;;;-2.50;99.90;;;;;;5021254;28;20048;-87
2023/03/28 03:41:55;;;;;;;21.65;6.20;;;-2.50;99.90;;;;;;5036745;28;20067;-87
2023/03/28 03:44:21;;;;;;;25.98;6.93;;;-2.50;99.90;;;;;;5036839;28;20032;-88
2023/03/28 03:46:47;;;;;;;17.75;6.43;;;-2.60;99.90;;;;;;5020524;28;20488;-88
2023/03/28 03:49:13;;;;;;;18.67;7.50;;;-2.70;99.90;;;;;;5020628;28;20152;-88
2023/03/28 03:51:39;;;;;;;30.70;7.60;;;-2.80;99.90;;;;;;5048309;28;20712;-88
2023/03/28 03:54:06;;;;;;;32.75;7.88;;;-2.80;99.90;;;;;;5020521;28;20057;-88
2023/03/28 03:56:38;;;;;;;26.27;9.63;;;-2.80;99.90;;;;;;5021464;28;20029;-88
2023/03/28 03:59:04;;;;;;;28.05;9.73;;;-2.70;99.90;;;;;;5037274;28;20111;-88
2023/03/28 04:01:33;;;;;;;36.67;9.15;;;-2.80;99.90;;;;;;5020100;28;20184;-88
2023/03/28 04:04:30;;;;;;;24.55;7.97;;;-2.90;99.90;;;;;;5040786;28;20500;-88
2023/03/28 04:07:06;;;;;;;22.58;7.20;;;-3.00;99.90;;;;;;5036474;28;20021;-87
2023/03/28 04:09:33;;;;;;;24.25;8.32;;;-3.10;99.90;;;;;;5036885;28;20490;-88
2023/03/28 04:12:02;;;;;;;23.42;8.10;;;-3.20;99.90;;;;;;5020464;28;20001;-87
2023/03/28 04:14:29;;;;;;;29.52;8.02;;;-3.20;99.90;;;;;;5055167;28;20032;-86
2023/03/28 04:17:14;;;;;;;24.90;8.35;;;-3.10;99.90;;;;;;5054356;28;20047;-88
2023/03/28 04:19:40;;;;;;;34.20;10.45;;;-3.00;99.90;;;;;;5037021;28;20040;-87
2023/03/28 04:22:11;;;;;;;30.73;9.20;;;-2.90;99.90;;;;;;5036932;28;20025;-87
2023/03/28 04:24:43;;;;;;;29.45;9.75;;;-2.90;99.90;;;;;;5011124;28;20037;-88
2023/03/28 04:27:28;;;;;;;31.63;9.70;;;-2.90;99.90;;;;;;5021170;28;20029;-88
2023/03/28 04:30:28;;;;;;;29.65;9.90;;;-3.00;99.90;;;;;;5035976;28;20060;-88
2023/03/28 04:33:23;;;;;;;28.60;10.02;;;-2.90;99.90;;;;;;5041335;28;20033;-87
2023/03/28 04:36:00;;;;;;;39.25;9.55;;;-2.90;99.90;;;;;;5036520;28;20649;-87
2023/03/28 04:38:31;;;;;;;37.17;9.90;;;-3.00;99.90;;;;;;5051093;28;20124;-87
2023/03/28 04:41:04;;;;;;;26.88;8.93;;;-3.10;99.90;;;;;;5020216;28;20803;-87
2023/03/28 04:43:48;;;;;;;27.95;9.98;;;-3.20;99.90;;;;;;5038790;28;20044;-87
2023/03/28 04:46:14;;;;;;;31.80;10.88;;;-3.30;99.90;;;;;;5019254;28;20037;-87
2023/03/28 04:48:46;;;;;;;33.90;11.75;;;-3.20;99.90;;;;;;5020526;28;20083;-87
2023/03/28 04:51:13;;;;;;;36.65;11.15;;;-3.10;99.90;;;;;;5011904;28;20510;-87
2023/03/28 04:53:39;;;;;;;30.05;10.88;;;-3.10;99.90;;;;;;5035335;28;20082;-87
2023/03/28 04:56:26;;;;;;;30.90;10.85;;;-3.20;99.90;;;;;;5037241;28;20392;-86
2023/03/28 04:58:52;;;;;;;31.95;11.35;;;-3.30;99.90;;;;;;5019281;28;20490;-87
2023/03/28 05:01:21;;;;;;;25.95;11.43;;;-3.30;99.90;;;;;;5035554;28;20025;-87
2023/03/28 05:04:16;;;;;;;38.47;11.07;;;-3.20;99.90;;;;;;5053149;28;20369;-88
2023/03/28 05:06:48;;;;;;;43.25;12.18;;;-3.30;99.90;;;;;;5019684;28;20348;-87
2023/03/28 05:09:35;;;;;;;43.97;13.70;;;-3.40;99.90;;;;;;5035220;28;20036;-88
2023/03/28 05:12:01;;;;;;;46.28;11.98;;;-3.30;99.90;;;;;;5035022;28;20271;-87
2023/03/28 05:14:27;;;;;;;41.42;12.20;;;-3.40;99.90;;;;;;5011197;28;20049;-87
2023/03/28 05:17:06;;;;;;;42.80;12.45;;;-3.30;99.90;;;;;;5036393;28;20039;-88
2023/03/28 05:19:52;;;;;;;38.55;10.60;;;-3.30;99.90;;;;;;5031521;28;20040;-87
2023/03/28 05:22:21;;;;;;;26.15;10.15;;;-3.40;99.90;;;;;;5016292;28;20112;-87
2023/03/28 05:24:47;;;;;;;38.55;12.52;;;-3.60;99.90;;;;;;5034938;28;20021;-87
2023/03/28 05:27:18;;;;;;;46.13;15.20;;;-3.70;99.90;;;;;;5018951;28;20033;-87
2023/03/28 05:29:44;;;;;;;53.42;14.50;;;-3.70;99.90;;;;;;5035101;28;20087;-87
2023/03/28 05:32:11;;;;;;;43.40;14.40;;;-3.80;99.90;;;;;;5035968;28;20025;-87
2023/03/28 05:34:38;;;;;;;46.88;12.68;;;-3.80;99.90;;;;;;5019054;28;20083;-87
2023/03/28 05:37:04;;;;;;;37.13;13.75;;;-3.80;99.90;;;;;;5019035;28;20029;-86
2023/03/28 05:39:41;;;;;;;51.85;17.27;;;-3.70;99.90;;;;;;5019498;28;20380;-87
2023/03/28 05:42:07;;;;;;;54.33;19.23;;;-3.70;99.90;;;;;;5034974;28;20021;-87
2023/03/28 05:44:36;;;;;;;51.00;18.77;;;-3.70;99.90;;;;;;5035443;28;20024;-86
2023/03/28 05:47:20;;;;;;;51.70;18.00;;;-3.60;99.90;;;;;;5053464;28;20064;-87
2023/03/28 05:49:46;;;;;;;49.88;15.88;;;-3.50;99.90;;;;;;5035310;28;20047;-87
2023/03/28 05:52:12;;;;;;;41.17;17.40;;;-3.50;99.90;;;;;;5036159;28;20138;-87
2023/03/28 05:54:39;;;;;;;45.30;16.35;;;-3.40;99.90;;;;;;5035202;28;20033;-86
2023/03/28 05:57:05;;;;;;;52.47;16.77;;;-3.50;99.90;;;;;;5034713;28;20094;-87
2023/03/28 05:59:31;;;;;;;41.28;16.70;;;-3.40;99.90;;;;;;5034686;28;20033;-87
2023/03/28 06:01:58;;;;;;;45.00;14.82;;;-3.40;99.90;;;;;;5012039;28;20116;-87
2023/03/28 06:04:25;;;;;;;37.80;14.30;;;-3.40;99.90;;;;;;5014514;28;20021;-87
2023/03/28 06:06:51;;;;;;;48.03;16.90;;;-3.40;99.90;;;;;;5020099;28;20156;-86
2023/03/28 06:09:23;;;;;;;57.13;19.67;;;-3.40;99.90;;;;;;5031444;28;20045;-86
2023/03/28 06:11:56;;;;;;;53.47;21.42;;;-3.20;99.90;;;;;;5037516;28;20112;-87
2023/03/28 06:14:22;;;;;;;62.90;21.95;;;-3.20;99.90;;;;;;5037314;28;20039;-86
2023/03/28 06:16:48;;;;;;;56.03;20.05;;;-3.20;99.90;;;;;;5038011;28;20777;-86
2023/03/28 06:19:14;;;;;;;51.13;20.30;;;-3.20;99.90;;;;;;5037500;28;20029;-87
2023/03/28 06:21:39;;;;;;;64.30;19.63;;;-3.20;99.90;;;;;;5020879;28;20361;-86
2023/03/28 06:24:05;;;;;;;61.50;24.00;;;-3.10;99.90;;;;;;5037733;28;20021;-85
2023/03/28 06:26:37;;;;;;;62.55;22.30;;;-3.00;99.90;;;;;;5054174;28;20468;-87
2023/03/28 06:29:04;;;;;;;63.17;20.73;;;-2.80;99.90;;;;;;5037992;28;20087;-87
2023/03/28 06:31:41;;;;;;;45.42;19.25;;;-2.60;99.90;;;;;;5033807;28;20025;-87
2023/03/28 06:34:07;;;;;;;51.67;19.80;;;-2.50;99.90;;;;;;5018044;28;20032;-87
2023/03/28 06:36:40;;;;;;;44.90;16.23;;;-2.50;99.90;;;;;;5037400;28;20392;-87
2023/03/28 06:39:08;;;;;;;45.58;15.93;;;-2.40;99.90;;;;;;5020189;28;20029;-87
2023/03/28 06:41:34;;;;;;;37.10;16.48;;;-2.40;99.90;;;;;;5032498;28;20063;-87
2023/03/28 06:43:59;;;;;;;53.08;19.08;;;-2.20;99.90;;;;;;5036779;28;20024;-87
2023/03/28 06:46:44;;;;;;;43.75;16.15;;;-2.10;99.90;;;;;;5038226;28;20051;-87
2023/03/28 06:49:11;;;;;;;39.30;15.93;;;-2.00;99.90;;;;;;5017029;28;20053;-87
2023/03/28 06:51:55;;;;;;;56.63;13.02;;;-1.80;99.90;;;;;;5038242;28;20040;-87
2023/03/28 06:54:21;;;;;;;47.20;15.27;;;-1.70;99.90;;;;;;5026690;28;20032;-87
2023/03/28 06:56:47;;;;;;;43.55;17.98;;;-1.70;99.90;;;;;;5037546;28;20464;-87
2023/03/28 06:59:12;;;;;;;47.65;13.05;;;-1.50;99.90;;;;;;5036523;28;20040;-87
2023/03/28 07:01:39;;;;;;;46.10;12.15;;;-1.40;99.90;;;;;;5021452;28;20048;-87
2023/03/28 07:04:11;;;;;;;52.17;13.93;;;-1.30;99.90;;;;;;5020942;28;20035;-87
2023/03/28 07:06:40;;;;;;;32.40;12.48;;;-1.30;99.90;;;;;;5021188;28;20124;-88
2023/03/28 07:09:06;;;;;;;45.90;14.48;;;-1.20;99.90;;;;;;5019550;28;20032;-87
2023/03/28 07:11:42;;;;;;;32.97;10.98;;;-1.20;99.90;;;;;;5019872;28;20037;-87
2023/03/28 07:14:08;;;;;;;35.22;12.00;;;-1.10;99.90;;;;;;5037015;28;20373;-87
2023/03/28 07:16:34;;;;;;;31.73;9.50;;;-1.00;99.90;;;;;;5019224;28;20068;-88
2023/03/28 07:19:00;;;;;;;36.17;9.55;;;-0.90;99.90;;;;;;5019171;28;20028;-87
2023/03/28 07:21:31;;;;;;;;;;;-0.80;99.90;;;;;;5036201;28;20075;-87
2023/03/28 07:23:59;;;;;;;33.30;9.38;;;-0.70;99.90;;;;;;5020384;28;19912;-87
2023/03/28 07:26:30;;;;;;;33.25;9.07;;;-0.70;99.90;;;;;;5037768;28;20087;-86
2023/03/28 07:28:56;;;;;;;27.15;10.10;;;-0.60;99.90;;;;;;5033845;28;20468;-87
2023/03/28 07:31:24;;;;;;;22.80;6.93;;;-0.60;99.90;;;;;;5018325;28;20044;-87
2023/03/28 07:33:50;;;;;;;23.17;7.90;;;-0.50;99.90;;;;;;5024425;28;20029;-87
2023/03/28 07:36:19;;;;;;;21.98;6.93;;;-0.50;99.90;;;;;;5035139;28;20032;-87
2023/03/28 07:38:49;;;;;;;35.22;7.05;;;-0.40;99.90;;;;;;5034453;28;20155;-87
2023/03/28 07:41:17;;;;;;;25.83;7.30;;;-0.40;99.90;;;;;;5016146;28;20025;-87
2023/03/28 07:43:43;;;;;;;22.25;6.70;;;-0.30;99.90;;;;;;5019647;28;20075;-87
2023/03/28 07:46:13;;;;;;;19.23;5.88;;;-0.20;99.90;;;;;;5018849;28;20025;-87
2023/03/28 07:48:40;;;;;;;18.20;6.32;;;-0.20;99.90;;;;;;5018380;28;20079;-87
2023/03/28 07:51:08;;;;;;;23.30;6.00;;;-0.10;99.90;;;;;;5018687;28;20029;-87
2023/03/28 07:53:36;;;;;;;22.05;4.95;;;0.00;99.90;;;;;;5036143;28;20033;-86
2023/03/28 07:56:03;;;;;;;16.20;5.55;;;0.10;99.90;;;;;;5035987;28;20036;-86
2023/03/28 07:58:48;;;;;;;23.35;5.90;;;0.10;99.90;;;;;;5022151;28;20476;-86
2023/03/28 08:01:17;;;;;;;17.73;6.38;;;0.20;99.90;;;;;;5021549;28;20043;-86
2023/03/28 08:03:49;;;;;;;22.58;5.07;;;0.30;99.90;;;;;;5036481;28;20068;-86
2023/03/28 08:06:16;;;;;;;14.02;3.90;;;0.40;99.90;;;;;;5021156;28;20118;-85
2023/03/28 08:08:42;;;;;;;21.70;4.07;;;0.40;99.90;;;;;;5019047;28;20033;-87
2023/03/28 08:11:26;;;;;;;19.58;4.20;;;0.40;99.90;;;;;;5032952;28;20502;-86
2023/03/28 08:13:53;;;;;;;13.90;4.10;;;0.50;99.90;;;;;;5046031;28;20031;-86
2023/03/28 08:16:21;;;;;;;11.23;3.58;;;0.50;99.90;;;;;;5004046;28;20087;-86
2023/03/28 08:18:47;;;;;;;15.20;3.75;;;0.60;99.90;;;;;;5019303;28;20033;-86
2023/03/28 08:21:13;;;;;;;9.20;3.78;;;0.70;99.90;;;;;;5020507;28;20036;-86
2023/03/28 08:23:39;;;;;;;15.02;3.20;;;0.80;99.90;;;;;;5038827;28;20112;-86
2023/03/28 08:26:19;;;;;;;9.30;3.28;;;0.90;99.90;;;;;;5017184;28;20026;-86
2023/03/28 08:28:53;;;;;;;11.13;3.47;;;1.00;99.90;;;;;;5035680;28;20108;-85
2023/03/28 08:31:22;;;;;;;21.25;4.15;;;1.00;99.90;;;;;;5035594;28;20481;-86
2023/03/28 08:33:51;;;;;;;;;;;1.10;99.90;;;;;;5020113;28;20033;-86
2023/03/28 08:36:23;;;;;;;14.85;4.07;;;1.10;99.90;;;;;;5022119;28;19912;-86
2023/03/28 08:38:50;;;;;;;10.75;4.00;;;1.10;99.90;;;;;;5035395;28;20025;-86
2023/03/28 08:41:51;;;;;;;15.45;4.28;;;1.20;99.90;;;;;;5037947;28;20044;-86
2023/03/28 08:44:34;;;;;;;14.15;3.20;;;1.30;99.90;;;;;;5014715;28;20028;-85
2023/03/28 08:47:33;;;;;;;10.48;3.47;;;1.30;99.90;;;;;;5019254;28;20124;-86
2023/03/28 08:50:26;;;;;;;12.88;3.35;;;1.60;99.90;;;;;;5026271;28;20060;-85
2023/03/28 08:52:54;;;;;;;14.63;3.83;;;3.10;99.90;;;;;;5015312;28;20029;-86
2023/03/28 08:55:41;;;;;;;9.07;2.88;;;4.80;99.90;;;;;;5035452;28;20084;-86
2023/03/28 08:58:18;;;;;;;20.55;4.70;;;6.30;99.90;;;;;;5019308;28;20079;-86
2023/03/28 09:00:45;;;;;;;13.52;5.07;;;7.20;99.90;;;;;;5018278;28;20029;-86
2023/03/28 09:03:13;;;;;;;13.95;3.35;;;7.50;99.90;;;;;;5035171;28;20033;-87
2023/03/28 09:05:51;;;;;;;8.82;2.78;;;7.70;99.90;;;;;;5018818;28;20021;-86
2023/03/28 09:08:33;;;;;;;11.55;3.78;;;8.20;99.90;;;;;;5035597;28;20552;-86
2023/03/28 09:11:26;;;;;;;19.55;9.95;;;9.10;99.90;;;;;;5026979;28;20085;-86
2023/03/28 09:14:48;;;;;;;15.60;4.63;;;9.90;99.90;;;;;;5009329;28;20036;-86
2023/03/28 09:17:34;;;;;;;12.00;3.95;;;10.40;99.90;;;;;;4971186;28;20035;-87
2023/03/28 09:20:25;;;;;;;12.45;4.20;;;10.30;99.90;;;;;;5019060;28;20480;-87
2023/03/28 09:23:12;;;;;;;10.80;3.13;;;9.80;96.80;;;;;;5053355;28;20033;-87
2023/03/28 09:26:22;;;;;;;4.13;1.23;;;9.50;95.50;;;;;;5014938;28;20025;-87
2023/03/28 09:29:05;;;;;;;9.20;3.72;;;10.10;92.30;;;;;;5034891;28;20566;-87
2023/03/28 09:31:36;;;;;;;12.05;3.08;;;10.20;90.50;;;;;;5037338;28;20048;-85
2023/03/28 09:34:37;;;;;;;4.93;1.90;;;8.70;88.00;;;;;;5035131;28;20029;-87
2023/03/28 09:37:28;;;;;;;6.18;2.28;;;8.60;92.40;;;;;;5037026;28;20112;-87
2023/03/28 09:39:59;;;;;;;16.98;5.43;;;7.90;93.50;;;;;;5007440;28;20037;-86
2023/03/28 09:42:52;;;;;;;3.75;1.42;;;7.10;96.90;;;;;;5023468;28;20032;-86
2023/03/28 09:45:48;;;;;;;12.73;2.95;;;6.40;98.10;;;;;;5043906;28;20112;-87
2023/03/28 09:48:28;;;;;;;46.00;22.42;;;6.00;98.20;;;;;;5042174;28;20492;-87
2023/03/28 09:50:58;;;;;;;15.60;7.40;;;5.60;99.90;;;;;;5039064;28;20021;-87
2023/03/28 09:53:31;;;;;;;8.10;2.42;;;5.30;99.90;;;;;;5018426;28;20484;-87
2023/03/28 09:56:02;;;;;;;7.57;2.20;;;5.40;98.70;;;;;;5026160;28;20049;-87
2023/03/28 09:58:45;;;;;;;11.57;5.13;;;6.40;97.20;;;;;;5035331;28;20083;-87
2023/03/28 10:01:42;;;;;;;14.25;7.97;;;7.80;95.70;;;;;;5037590;28;20021;-86
2023/03/28 10:04:14;;;;;;;14.23;6.10;;;7.80;91.50;;;;;;5054334;28;20033;-86
2023/03/28 10:07:08;;;;;;;4.20;1.40;;;7.70;91.30;;;;;;5030665;28;20120;-85
2023/03/28 10:10:38;;;;;;;7.22;1.17;;;8.50;88.60;;;;;;5012087;28;20057;-85
2023/03/28 10:13:10;;;;;;;8.18;1.33;;;9.40;84.00;;;;;;5034586;28;20472;-86
2023/03/28 10:15:44;;;;;;;5.25;1.70;;;9.60;80.10;;;;;;5025618;28;20028;-86
2023/03/28 10:18:30;;;;;;;9.68;2.08;;;9.20;86.20;;;;;;5045201;28;20044;-86
2023/03/28 10:21:26;;;;;;;10.65;2.67;;;8.00;84.10;;;;;;5032570;28;20072;-86
2023/03/28 10:24:06;;;;;;;9.10;4.28;;;7.50;89.70;;;;;;5020883;28;20491;-86
2023/03/28 10:26:32;;;;;;;4.90;2.10;;;8.00;89.20;;;;;;5051645;28;20033;-86
2023/03/28 10:29:05;;;;;;;19.58;7.45;;;9.10;87.80;;;;;;5037060;28;20250;-86
2023/03/28 10:31:32;;;;;;;15.50;6.63;;;9.10;81.20;;;;;;5037572;28;20041;-86
2023/03/28 10:34:36;;;;;;;8.18;2.13;;;8.30;84.80;;;;;;4973816;28;20042;-86
2023/03/28 10:37:02;;;;;;;12.77;1.50;;;7.10;91.00;;;;;;5057514;28;20514;-85
2023/03/28 10:40:17;;;;;;;7.82;2.03;;;6.70;92.60;;;;;;5045191;28;20029;-86
2023/03/28 10:43:15;;;;;;;5.07;1.65;;;7.40;93.10;;;;;;5030269;28;20037;-87
2023/03/28 10:45:54;;;;;;;7.13;3.25;;;8.80;93.00;;;;;;5022833;28;20036;-86
2023/03/28 10:48:56;;;;;;;6.25;1.17;;;9.40;90.10;;;;;;5022823;28;20400;-86
2023/03/28 10:51:24;;;;;;;6.43;1.90;;;9.00;80.60;;;;;;5021404;28;20028;-87
2023/03/28 10:54:05;;;;;;;9.88;2.10;;;9.00;86.80;;;;;;5021090;28;20086;-86
2023/03/28 10:56:40;;;;;;;7.05;2.38;;;8.40;88.00;;;;;;5020825;28;20480;-86
2023/03/28 10:59:54;;;;;;;28.92;12.77;;;8.00;91.60;;;;;;5036748;28;20033;-87
2023/03/28 11:02:30;;;;;;;10.48;3.30;;;7.10;94.10;;;;;;5037623;28;20033;-86
2023/03/28 11:05:20;;;;;;;9.93;2.95;;;6.60;97.90;;;;;;5037767;28;20022;-86
2023/03/28 11:08:30;;;;;;;13.73;3.22;;;6.40;97.60;;;;;;5036750;28;20035;-86
2023/03/28 11:11:20;;;;;;;10.43;4.35;;;6.20;99.30;;;;;;5014121;28;20631;-86
2023/03/28 11:14:16;;;;;;;8.50;2.88;;;6.20;99.90;;;;;;5037503;28;20036;-86
2023/03/28 11:17:04;;;;;;;4.25;1.83;;;5.90;98.80;;;;;;5036920;28;20065;-85
2023/03/28 11:20:09;;;;;;;13.15;3.25;;;5.90;99.90;;;;;;5036272;28;20094;-86
2023/03/28 11:22:42;;;;;;;9.95;3.70;;;6.10;99.40;;;;;;5036962;28;20148;-86
2023/03/28 11:25:44;;;;;;;5.53;2.30;;;6.40;98.20;;;;;;5020051;28;20134;-86
2023/03/28 11:28:58;;;;;;;14.23;6.97;;;6.90;97.40;;;;;;5039653;28;20040;-86
2023/03/28 11:32:00;;;;;;;6.30;2.78;;;7.30;94.90;;;;;;5011624;28;20037;-85
2023/03/28 11:34:36;;;;;;;26.43;16.33;;;7.10;97.20;;;;;;5036906;28;20040;-85
2023/03/28 11:37:24;;;;;;;58.75;29.70;;;7.10;94.20;;;;;;5029321;28;20274;-85
2023/03/28 11:39:58;;;;;;;39.83;18.33;;;6.80;95.10;;;;;;5008272;28;20056;-86
2023/03/28 11:42:44;;;;;;;16.58;7.13;;;6.60;95.50;;;;;;5037829;28;20044;-85
2023/03/28 11:45:22;;;;;;;8.38;4.25;;;7.60;91.80;;;;;;5036219;28;20132;-86
2023/03/28 11:48:12;;;;;;;7.00;1.85;;;8.80;91.00;;;;;;5019974;28;20104;-86
2023/03/28 11:51:02;;;;;;;10.05;2.15;;;10.10;85.80;;;;;;5026176;28;20036;-86
2023/03/28 11:53:52;;;;;;;8.07;2.35;;;10.60;84.20;;;;;;5033482;28;20037;-86
2023/03/28 11:56:45;;;;;;;7.78;2.10;;;10.70;87.10;;;;;;5034058;28;20060;-87
2023/03/28 11:59:33;;;;;;;8.85;2.03;;;11.10;82.70;;;;;;5017506;28;20551;-86
2023/03/28 12:02:22;;;;;;;6.00;2.05;;;10.80;81.60;;;;;;5019887;28;20035;-86
2023/03/28 12:05:15;;;;;;;13.93;4.05;;;10.40;82.60;;;;;;5017003;28;20087;-86
2023/03/28 12:08:06;;;;;;;14.18;3.20;;;9.80;83.70;;;;;;5049856;28;20558;-86
2023/03/28 12:10:35;;;;;;;3.30;1.92;;;9.80;90.30;;;;;;5035756;28;20031;-87
2023/03/28 12:13:38;;;;;;;6.07;2.88;;;9.60;83.90;;;;;;5019147;28;20070;-86
2023/03/28 12:16:13;;;;;;;7.28;2.42;;;10.00;87.60;;;;;;5016824;28;20029;-86
2023/03/28 12:18:47;;;;;;;7.85;2.30;;;10.00;85.50;;;;;;5019916;28;20499;-86
2023/03/28 12:21:48;;;;;;;9.70;2.50;;;10.30;82.40;;;;;;5039730;28;20488;-84
2023/03/28 12:24:32;;;;;;;12.38;2.47;;;9.50;81.80;;;;;;5021055;28;20032;-86
2023/03/28 12:27:36;;;;;;;7.43;1.90;;;9.40;83.20;;;;;;5015362;28;20045;-86
2023/03/28 12:30:19;;;;;;;6.20;1.98;;;9.90;84.20;;;;;;5025042;28;20025;-86
2023/03/28 12:33:00;;;;;;;7.57;2.00;;;10.20;84.80;;;;;;5016849;28;20029;-87
2023/03/28 12:35:54;;;;;;;7.97;2.05;;;10.00;84.30;;;;;;5037655;28;20036;-87
2023/03/28 12:38:40;;;;;;;6.15;1.95;;;9.40;85.70;;;;;;5039484;28;20060;-86
2023/03/28 12:41:25;;;;;;;8.65;2.15;;;8.60;85.10;;;;;;5036015;28;20021;-86
2023/03/28 12:44:01;;;;;;;6.55;2.67;;;8.80;90.00;;;;;;5019274;28;20061;-87
2023/03/28 12:47:09;;;;;;;11.02;2.80;;;8.80;86.30;;;;;;5034248;28;20040;-86
2023/03/28 12:50:04;;;;;;;5.00;2.13;;;8.90;91.60;;;;;;4987314;28;20087;-86
2023/03/28 12:52:35;;;;;;;6.35;2.03;;;8.80;90.90;;;;;;5019859;28;20454;-87
2023/03/28 12:55:06;;;;;;;5.43;1.73;;;8.70;88.10;;;;;;5020148;28;20372;-85
2023/03/28 12:57:45;;;;;;;7.00;2.10;;;8.70;89.60;;;;;;5036258;28;20513;-85
2023/03/28 13:00:38;;;;;;;5.55;2.25;;;8.50;88.00;;;;;;5053303;28;20043;-86
2023/03/28 13:03:25;;;;;;;12.95;2.53;;;8.20;92.00;;;;;;5038027;28;20040;-85
2023/03/28 13:06:33;;;;;;;14.77;2.50;;;8.30;91.40;;;;;;5037462;28;20083;-86
2023/03/28 13:09:37;;;;;;;5.22;2.30;;;8.50;90.40;;;;;;4995137;28;20044;-86
2023/03/28 13:12:19;;;;;;;9.02;2.60;;;8.70;90.70;;;;;;5034435;28;20029;-87
2023/03/28 13:14:59;;;;;;;6.60;2.40;;;8.80;90.70;;;;;;5034739;28;20102;-86
2023/03/28 13:17:29;;;;;;;9.93;2.97;;;9.00;90.20;;;;;;5022757;28;20041;-86
2023/03/28 13:20:14;;;;;;;10.30;2.40;;;9.20;87.50;;;;;;5021114;28;20041;-86
2023/03/28 13:22:49;;;;;;;11.45;2.95;;;8.80;82.10;;;;;;5022545;28;20033;-87
2023/03/28 13:25:21;;;;;;;10.68;2.88;;;8.50;85.00;;;;;;5038225;28;20028;-86
2023/03/28 13:27:49;;;;;;;6.25;2.22;;;8.80;84.70;;;;;;5038408;28;20029;-87
2023/03/28 13:30:18;;;;;;;4.88;1.80;;;8.70;84.60;;;;;;5024040;28;20059;-87
2023/03/28 13:32:58;;;;;;;3.25;2.05;;;8.70;85.20;;;;;;5026998;28;20037;-87
2023/03/28 13:35:35;;;;;;;6.93;2.33;;;8.50;87.70;;;;;;5034778;28;20029;-87